Kezdőlap
METAR-TAF:

METAR-TAF

Repülőterek :

Warroad International Airport (Swede Carlson Field)

Warroad, Minnesota, Amerikai Egyesült Államok

földrajzi szélesség: 48-56-29N, földrajzi hosszúság: 095-20-54W, magasság: 327 m

Jelenlegi meteorológiai megfigyelések

A jelentés 5 perccel ezelõtt készült, 12:35 UTC
Szélcsend
Hőmérséklet 18°C
Páratartalom 88%
Légköri nyomás 1015 hPa
Látótávolság: 16.1 km
Borult 11000 lábon

METAR: KRRT 221235Z AUTO 00000KT 10SM OVC110 18/16 A2997 RMK AO2

Idő: 07:40 (12:40 UTC)


TAF: hiányzik

Meteorológiai megfigyelések és előrejelzések több, mint 4000 repülőtéren (METAR és TAF jelentéseket).

A térképen piros és sárga pontok jelzik az elérhető meteorológiai állomásokat.

Mozgassa az egeret a pont fölött, hogy megjelenjen az állomás neve.

Azután kattintson az időjárási megfigyelések és előrejelzések megtekintéséhez.

A térkép megváltoztatása: kattintson a fekete keresztel jelölt zöld gombra ráközelítéshez, a vonallal jelölt zöld gombra távolításhoz, vagy a zöld nyilakra a szomszédos térképek eléréséhez.


METAR-TAF: